sensor_id;sensor_type;location;lat;lon;timestamp;P1;durP1;ratioP1;P2;durP2;ratioP2
17145;SDS011;8688;54.444;18.444;2022-10-16T00:01:09;44.80;;;24.02;;
17145;SDS011;8688;54.444;18.444;2022-10-16T00:03:37;44.17;;;24.95;;
17145;SDS011;8688;54.444;18.444;2022-10-16T00:06:06;45.35;;;24.60;;
17145;SDS011;8688;54.444;18.444;2022-10-16T00:08:36;46.63;;;24.20;;
17145;SDS011;8688;54.444;18.444;2022-10-16T00:11:04;43.88;;;23.98;;
17145;SDS011;8688;54.444;18.444;2022-10-16T00:13:35;44.85;;;24.25;;
17145;SDS011;8688;54.444;18.444;2022-10-16T00:16:04;46.45;;;24.08;;
17145;SDS011;8688;54.444;18.444;2022-10-16T00:18:32;43.15;;;24.30;;
17145;SDS011;8688;54.444;18.444;2022-10-16T00:21:03;44.65;;;23.30;;
17145;SDS011;8688;54.444;18.444;2022-10-16T00:23:32;47.67;;;24.50;;
17145;SDS011;8688;54.444;18.444;2022-10-16T00:26:02;43.60;;;23.45;;
17145;SDS011;8688;54.444;18.444;2022-10-16T00:28:32;46.65;;;24.55;;
17145;SDS011;8688;54.444;18.444;2022-10-16T00:31:02;43.60;;;24.17;;
17145;SDS011;8688;54.444;18.444;2022-10-16T00:33:30;47.75;;;23.63;;
17145;SDS011;8688;54.444;18.444;2022-10-16T00:35:57;43.95;;;23.05;;
17145;SDS011;8688;54.444;18.444;2022-10-16T00:38:25;43.05;;;23.00;;
17145;SDS011;8688;54.444;18.444;2022-10-16T00:40:52;43.88;;;23.63;;
17145;SDS011;8688;54.444;18.444;2022-10-16T00:43:35;39.85;;;22.13;;
17145;SDS011;8688;54.444;18.444;2022-10-16T00:46:08;40.38;;;21.13;;
17145;SDS011;8688;54.444;18.444;2022-10-16T00:48:42;42.58;;;21.98;;
17145;SDS011;8688;54.444;18.444;2022-10-16T00:51:13;40.92;;;21.90;;
17145;SDS011;8688;54.444;18.444;2022-10-16T00:53:41;38.85;;;21.45;;
17145;SDS011;8688;54.444;18.444;2022-10-16T00:56:10;43.95;;;22.92;;
17145;SDS011;8688;54.444;18.444;2022-10-16T00:58:39;39.35;;;21.42;;
17145;SDS011;8688;54.444;18.444;2022-10-16T01:01:07;43.08;;;22.13;;
17145;SDS011;8688;54.444;18.444;2022-10-16T01:03:35;38.45;;;21.08;;
17145;SDS011;8688;54.444;18.444;2022-10-16T01:06:18;38.53;;;21.30;;
17145;SDS011;8688;54.444;18.444;2022-10-16T01:08:57;36.92;;;19.35;;
17145;SDS011;8688;54.444;18.444;2022-10-16T01:11:38;38.05;;;19.67;;
17145;SDS011;8688;54.444;18.444;2022-10-16T01:14:14;38.25;;;19.48;;
17145;SDS011;8688;54.444;18.444;2022-10-16T01:16:49;34.90;;;19.05;;
17145;SDS011;8688;54.444;18.444;2022-10-16T01:19:25;37.38;;;18.67;;
17145;SDS011;8688;54.444;18.444;2022-10-16T01:22:02;36.92;;;19.42;;
17145;SDS011;8688;54.444;18.444;2022-10-16T01:24:33;33.85;;;18.17;;
17145;SDS011;8688;54.444;18.444;2022-10-16T01:27:10;34.80;;;18.52;;
17145;SDS011;8688;54.444;18.444;2022-10-16T01:29:42;32.72;;;18.00;;
17145;SDS011;8688;54.444;18.444;2022-10-16T01:32:17;33.17;;;17.88;;
17145;SDS011;8688;54.444;18.444;2022-10-16T01:34:50;30.58;;;17.80;;
17145;SDS011;8688;54.444;18.444;2022-10-16T01:37:22;36.17;;;18.73;;
17145;SDS011;8688;54.444;18.444;2022-10-16T01:39:56;34.45;;;18.23;;
17145;SDS011;8688;54.444;18.444;2022-10-16T01:42:28;31.70;;;18.27;;
17145;SDS011;8688;54.444;18.444;2022-10-16T01:45:00;32.58;;;18.20;;
17145;SDS011;8688;54.444;18.444;2022-10-16T01:47:31;31.45;;;18.02;;
17145;SDS011;8688;54.444;18.444;2022-10-16T01:50:01;31.23;;;18.42;;
17145;SDS011;8688;54.444;18.444;2022-10-16T01:52:30;31.17;;;17.98;;
17145;SDS011;8688;54.444;18.444;2022-10-16T01:55:02;33.10;;;18.42;;
17145;SDS011;8688;54.444;18.444;2022-10-16T01:57:34;31.67;;;16.98;;
17145;SDS011;8688;54.444;18.444;2022-10-16T02:00:07;31.02;;;18.00;;
17145;SDS011;8688;54.444;18.444;2022-10-16T02:02:38;30.83;;;17.90;;
17145;SDS011;8688;54.444;18.444;2022-10-16T02:05:10;26.15;;;16.90;;
17145;SDS011;8688;54.444;18.444;2022-10-16T02:07:41;29.30;;;17.42;;
17145;SDS011;8688;54.444;18.444;2022-10-16T02:10:09;28.45;;;16.20;;
17145;SDS011;8688;54.444;18.444;2022-10-16T02:12:39;25.65;;;15.73;;
17145;SDS011;8688;54.444;18.444;2022-10-16T02:15:11;25.67;;;16.42;;
17145;SDS011;8688;54.444;18.444;2022-10-16T02:17:38;25.80;;;14.70;;
17145;SDS011;8688;54.444;18.444;2022-10-16T02:20:05;24.83;;;15.55;;
17145;SDS011;8688;54.444;18.444;2022-10-16T02:22:34;21.95;;;14.73;;
17145;SDS011;8688;54.444;18.444;2022-10-16T02:25:06;23.95;;;14.93;;
17145;SDS011;8688;54.444;18.444;2022-10-16T02:27:38;26.00;;;14.73;;
17145;SDS011;8688;54.444;18.444;2022-10-16T02:30:13;23.23;;;15.20;;
17145;SDS011;8688;54.444;18.444;2022-10-16T02:32:45;24.83;;;15.25;;
17145;SDS011;8688;54.444;18.444;2022-10-16T02:35:15;24.13;;;15.73;;
17145;SDS011;8688;54.444;18.444;2022-10-16T02:37:45;24.00;;;14.70;;
17145;SDS011;8688;54.444;18.444;2022-10-16T02:40:14;25.50;;;14.88;;
17145;SDS011;8688;54.444;18.444;2022-10-16T02:42:44;23.55;;;16.17;;
17145;SDS011;8688;54.444;18.444;2022-10-16T02:45:16;25.35;;;16.23;;
17145;SDS011;8688;54.444;18.444;2022-10-16T02:47:43;23.25;;;15.13;;
17145;SDS011;8688;54.444;18.444;2022-10-16T02:50:11;23.25;;;14.80;;
17145;SDS011;8688;54.444;18.444;2022-10-16T02:52:38;25.88;;;15.63;;
17145;SDS011;8688;54.444;18.444;2022-10-16T02:55:06;24.02;;;15.48;;
17145;SDS011;8688;54.444;18.444;2022-10-16T02:57:34;25.40;;;16.00;;
17145;SDS011;8688;54.444;18.444;2022-10-16T03:00:04;23.98;;;15.65;;
17145;SDS011;8688;54.444;18.444;2022-10-16T03:02:33;23.90;;;15.88;;
17145;SDS011;8688;54.444;18.444;2022-10-16T03:05:00;21.98;;;14.30;;
17145;SDS011;8688;54.444;18.444;2022-10-16T03:07:28;25.88;;;15.73;;
17145;SDS011;8688;54.444;18.444;2022-10-16T03:09:55;22.60;;;14.68;;
17145;SDS011;8688;54.444;18.444;2022-10-16T03:12:25;25.15;;;15.85;;
17145;SDS011;8688;54.444;18.444;2022-10-16T03:14:52;25.30;;;15.75;;
17145;SDS011;8688;54.444;18.444;2022-10-16T03:17:21;26.20;;;16.05;;
17145;SDS011;8688;54.444;18.444;2022-10-16T03:19:49;23.05;;;15.32;;
17145;SDS011;8688;54.444;18.444;2022-10-16T03:22:16;22.23;;;15.25;;
17145;SDS011;8688;54.444;18.444;2022-10-16T03:24:44;28.15;;;16.25;;
17145;SDS011;8688;54.444;18.444;2022-10-16T03:27:11;25.15;;;15.75;;
17145;SDS011;8688;54.444;18.444;2022-10-16T03:29:38;24.33;;;15.85;;
17145;SDS011;8688;54.444;18.444;2022-10-16T03:32:06;27.63;;;16.27;;
17145;SDS011;8688;54.444;18.444;2022-10-16T03:34:35;23.88;;;16.05;;
17145;SDS011;8688;54.444;18.444;2022-10-16T03:37:02;25.25;;;15.93;;
17145;SDS011;8688;54.444;18.444;2022-10-16T03:39:30;23.67;;;15.88;;
17145;SDS011;8688;54.444;18.444;2022-10-16T03:41:58;24.20;;;14.98;;
17145;SDS011;8688;54.444;18.444;2022-10-16T03:44:25;22.98;;;15.23;;
17145;SDS011;8688;54.444;18.444;2022-10-16T03:46:52;24.85;;;14.45;;
17145;SDS011;8688;54.444;18.444;2022-10-16T03:49:20;24.27;;;15.93;;
17145;SDS011;8688;54.444;18.444;2022-10-16T03:51:48;24.77;;;15.90;;
17145;SDS011;8688;54.444;18.444;2022-10-16T03:54:16;24.52;;;15.43;;
17145;SDS011;8688;54.444;18.444;2022-10-16T03:56:43;22.80;;;15.52;;
17145;SDS011;8688;54.444;18.444;2022-10-16T03:59:10;23.65;;;15.57;;
17145;SDS011;8688;54.444;18.444;2022-10-16T04:01:38;24.00;;;15.32;;
17145;SDS011;8688;54.444;18.444;2022-10-16T04:04:05;23.70;;;15.27;;
17145;SDS011;8688;54.444;18.444;2022-10-16T04:06:33;24.85;;;15.95;;
17145;SDS011;8688;54.444;18.444;2022-10-16T04:09:02;26.48;;;16.85;;
17145;SDS011;8688;54.444;18.444;2022-10-16T04:11:29;23.92;;;15.63;;
17145;SDS011;8688;54.444;18.444;2022-10-16T04:13:57;23.45;;;16.25;;
17145;SDS011;8688;54.444;18.444;2022-10-16T04:16:24;25.55;;;16.75;;
17145;SDS011;8688;54.444;18.444;2022-10-16T04:18:51;26.25;;;17.25;;
17145;SDS011;8688;54.444;18.444;2022-10-16T04:21:19;27.23;;;16.60;;
17145;SDS011;8688;54.444;18.444;2022-10-16T04:23:46;26.65;;;16.55;;
17145;SDS011;8688;54.444;18.444;2022-10-16T04:26:16;31.25;;;19.17;;
17145;SDS011;8688;54.444;18.444;2022-10-16T04:28:43;27.10;;;16.52;;
17145;SDS011;8688;54.444;18.444;2022-10-16T04:31:11;29.15;;;18.00;;
17145;SDS011;8688;54.444;18.444;2022-10-16T04:33:38;26.50;;;17.33;;
17145;SDS011;8688;54.444;18.444;2022-10-16T04:36:08;25.90;;;17.27;;
17145;SDS011;8688;54.444;18.444;2022-10-16T04:38:36;30.48;;;18.40;;
17145;SDS011;8688;54.444;18.444;2022-10-16T04:41:04;26.92;;;17.98;;
17145;SDS011;8688;54.444;18.444;2022-10-16T04:43:34;27.58;;;18.13;;
17145;SDS011;8688;54.444;18.444;2022-10-16T04:46:01;26.83;;;17.00;;
17145;SDS011;8688;54.444;18.444;2022-10-16T04:48:29;26.75;;;17.35;;
17145;SDS011;8688;54.444;18.444;2022-10-16T04:50:57;27.27;;;17.85;;
17145;SDS011;8688;54.444;18.444;2022-10-16T04:53:24;30.33;;;18.35;;
17145;SDS011;8688;54.444;18.444;2022-10-16T04:55:52;25.63;;;17.17;;
17145;SDS011;8688;54.444;18.444;2022-10-16T04:58:19;26.30;;;17.65;;
17145;SDS011;8688;54.444;18.444;2022-10-16T05:00:48;25.63;;;17.23;;
17145;SDS011;8688;54.444;18.444;2022-10-16T05:03:15;26.90;;;17.70;;
17145;SDS011;8688;54.444;18.444;2022-10-16T05:05:43;29.58;;;18.42;;
17145;SDS011;8688;54.444;18.444;2022-10-16T05:08:11;26.33;;;17.90;;
17145;SDS011;8688;54.444;18.444;2022-10-16T05:10:40;28.58;;;18.73;;
17145;SDS011;8688;54.444;18.444;2022-10-16T05:13:08;28.38;;;17.95;;
17145;SDS011;8688;54.444;18.444;2022-10-16T05:15:35;29.48;;;18.15;;
17145;SDS011;8688;54.444;18.444;2022-10-16T05:18:05;30.30;;;19.17;;
17145;SDS011;8688;54.444;18.444;2022-10-16T05:20:32;32.28;;;19.33;;
17145;SDS011;8688;54.444;18.444;2022-10-16T05:23:00;33.38;;;19.42;;
17145;SDS011;8688;54.444;18.444;2022-10-16T05:25:27;30.65;;;20.13;;
17145;SDS011;8688;54.444;18.444;2022-10-16T05:27:54;30.00;;;19.65;;
17145;SDS011;8688;54.444;18.444;2022-10-16T05:30:22;30.35;;;19.75;;
17145;SDS011;8688;54.444;18.444;2022-10-16T05:32:50;31.50;;;20.80;;
17145;SDS011;8688;54.444;18.444;2022-10-16T05:35:19;32.15;;;21.02;;
17145;SDS011;8688;54.444;18.444;2022-10-16T05:37:47;31.52;;;19.83;;
17145;SDS011;8688;54.444;18.444;2022-10-16T05:40:15;29.20;;;20.70;;
17145;SDS011;8688;54.444;18.444;2022-10-16T05:42:42;30.88;;;20.25;;
17145;SDS011;8688;54.444;18.444;2022-10-16T05:45:10;29.00;;;19.92;;
17145;SDS011;8688;54.444;18.444;2022-10-16T05:47:38;31.25;;;21.13;;
17145;SDS011;8688;54.444;18.444;2022-10-16T05:50:05;35.08;;;22.80;;
17145;SDS011;8688;54.444;18.444;2022-10-16T05:52:35;33.50;;;21.75;;
17145;SDS011;8688;54.444;18.444;2022-10-16T05:55:02;31.15;;;21.38;;
17145;SDS011;8688;54.444;18.444;2022-10-16T05:57:30;30.65;;;20.48;;
17145;SDS011;8688;54.444;18.444;2022-10-16T05:59:58;36.85;;;21.45;;
17145;SDS011;8688;54.444;18.444;2022-10-16T06:02:25;35.08;;;21.67;;
17145;SDS011;8688;54.444;18.444;2022-10-16T06:04:53;34.08;;;22.15;;
17145;SDS011;8688;54.444;18.444;2022-10-16T06:07:21;35.67;;;22.27;;
17145;SDS011;8688;54.444;18.444;2022-10-16T06:09:51;32.90;;;21.45;;
17145;SDS011;8688;54.444;18.444;2022-10-16T06:12:19;33.13;;;21.45;;
17145;SDS011;8688;54.444;18.444;2022-10-16T06:14:46;33.60;;;22.10;;
17145;SDS011;8688;54.444;18.444;2022-10-16T06:17:20;33.92;;;21.80;;
17145;SDS011;8688;54.444;18.444;2022-10-16T06:19:50;36.33;;;22.30;;
17145;SDS011;8688;54.444;18.444;2022-10-16T06:22:17;33.83;;;20.77;;
17145;SDS011;8688;54.444;18.444;2022-10-16T06:24:45;34.17;;;20.55;;
17145;SDS011;8688;54.444;18.444;2022-10-16T06:27:14;34.35;;;20.83;;
17145;SDS011;8688;54.444;18.444;2022-10-16T06:29:41;31.88;;;20.77;;
17145;SDS011;8688;54.444;18.444;2022-10-16T06:32:10;37.42;;;23.52;;
17145;SDS011;8688;54.444;18.444;2022-10-16T06:34:38;33.63;;;21.23;;
17145;SDS011;8688;54.444;18.444;2022-10-16T06:37:06;32.88;;;20.20;;
17145;SDS011;8688;54.444;18.444;2022-10-16T06:39:33;63.70;;;33.22;;
17145;SDS011;8688;54.444;18.444;2022-10-16T06:42:01;28.55;;;19.08;;
17145;SDS011;8688;54.444;18.444;2022-10-16T06:44:30;28.92;;;18.10;;
17145;SDS011;8688;54.444;18.444;2022-10-16T06:46:57;28.73;;;19.65;;
17145;SDS011;8688;54.444;18.444;2022-10-16T06:49:24;32.67;;;19.58;;
17145;SDS011;8688;54.444;18.444;2022-10-16T06:51:53;30.38;;;19.23;;
17145;SDS011;8688;54.444;18.444;2022-10-16T06:54:21;27.05;;;18.92;;
17145;SDS011;8688;54.444;18.444;2022-10-16T06:56:48;29.63;;;19.30;;
17145;SDS011;8688;54.444;18.444;2022-10-16T06:59:19;31.38;;;20.25;;
17145;SDS011;8688;54.444;18.444;2022-10-16T07:01:48;28.88;;;19.00;;
17145;SDS011;8688;54.444;18.444;2022-10-16T07:04:15;27.58;;;19.13;;
17145;SDS011;8688;54.444;18.444;2022-10-16T07:06:42;33.50;;;22.15;;
17145;SDS011;8688;54.444;18.444;2022-10-16T07:09:10;25.02;;;17.30;;
17145;SDS011;8688;54.444;18.444;2022-10-16T07:11:38;26.67;;;17.70;;
17145;SDS011;8688;54.444;18.444;2022-10-16T07:14:09;22.73;;;16.63;;
17145;SDS011;8688;54.444;18.444;2022-10-16T07:16:42;23.67;;;16.23;;
17145;SDS011;8688;54.444;18.444;2022-10-16T07:19:11;22.63;;;14.80;;
17145;SDS011;8688;54.444;18.444;2022-10-16T07:21:40;19.35;;;13.40;;
17145;SDS011;8688;54.444;18.444;2022-10-16T07:24:10;19.08;;;12.70;;
17145;SDS011;8688;54.444;18.444;2022-10-16T07:26:40;19.60;;;14.52;;
17145;SDS011;8688;54.444;18.444;2022-10-16T07:29:11;21.00;;;13.93;;
17145;SDS011;8688;54.444;18.444;2022-10-16T07:31:40;21.35;;;14.13;;
17145;SDS011;8688;54.444;18.444;2022-10-16T07:34:08;20.45;;;14.02;;
17145;SDS011;8688;54.444;18.444;2022-10-16T07:36:38;20.77;;;14.63;;
17145;SDS011;8688;54.444;18.444;2022-10-16T07:39:05;22.40;;;15.52;;
17145;SDS011;8688;54.444;18.444;2022-10-16T07:41:33;20.92;;;15.27;;
17145;SDS011;8688;54.444;18.444;2022-10-16T07:44:02;20.27;;;14.25;;
17145;SDS011;8688;54.444;18.444;2022-10-16T07:46:30;22.88;;;14.88;;
17145;SDS011;8688;54.444;18.444;2022-10-16T07:48:58;23.33;;;15.48;;
17145;SDS011;8688;54.444;18.444;2022-10-16T07:51:27;22.35;;;15.90;;
17145;SDS011;8688;54.444;18.444;2022-10-16T07:53:55;25.00;;;17.50;;
17145;SDS011;8688;54.444;18.444;2022-10-16T07:56:22;29.17;;;18.35;;
17145;SDS011;8688;54.444;18.444;2022-10-16T07:58:50;29.27;;;18.85;;
17145;SDS011;8688;54.444;18.444;2022-10-16T08:01:18;30.88;;;20.20;;
17145;SDS011;8688;54.444;18.444;2022-10-16T08:03:46;30.27;;;18.73;;
17145;SDS011;8688;54.444;18.444;2022-10-16T08:06:15;29.40;;;19.58;;
17145;SDS011;8688;54.444;18.444;2022-10-16T08:08:45;30.65;;;19.80;;
17145;SDS011;8688;54.444;18.444;2022-10-16T08:11:12;30.65;;;20.23;;
17145;SDS011;8688;54.444;18.444;2022-10-16T08:13:40;32.35;;;19.35;;
17145;SDS011;8688;54.444;18.444;2022-10-16T08:16:08;29.98;;;19.63;;
17145;SDS011;8688;54.444;18.444;2022-10-16T08:18:36;32.83;;;21.05;;
17145;SDS011;8688;54.444;18.444;2022-10-16T08:21:05;32.30;;;21.10;;
17145;SDS011;8688;54.444;18.444;2022-10-16T08:23:34;33.13;;;20.25;;
17145;SDS011;8688;54.444;18.444;2022-10-16T08:26:05;34.50;;;21.70;;
17145;SDS011;8688;54.444;18.444;2022-10-16T08:28:33;32.42;;;20.38;;
17145;SDS011;8688;54.444;18.444;2022-10-16T08:31:05;33.70;;;21.90;;
17145;SDS011;8688;54.444;18.444;2022-10-16T08:33:34;40.15;;;22.88;;
17145;SDS011;8688;54.444;18.444;2022-10-16T08:36:02;38.65;;;22.20;;
17145;SDS011;8688;54.444;18.444;2022-10-16T08:38:30;33.55;;;20.95;;
17145;SDS011;8688;54.444;18.444;2022-10-16T08:41:02;36.08;;;23.08;;
17145;SDS011;8688;54.444;18.444;2022-10-16T08:46:49;33.00;;;21.00;;
17145;SDS011;8688;54.444;18.444;2022-10-16T08:49:21;36.65;;;22.35;;
17145;SDS011;8688;54.444;18.444;2022-10-16T08:51:49;31.50;;;20.77;;
17145;SDS011;8688;54.444;18.444;2022-10-16T08:54:23;35.55;;;22.27;;
17145;SDS011;8688;54.444;18.444;2022-10-16T08:56:57;35.90;;;19.83;;
17145;SDS011;8688;54.444;18.444;2022-10-16T08:59:34;35.30;;;21.65;;
17145;SDS011;8688;54.444;18.444;2022-10-16T09:02:02;34.10;;;21.05;;
17145;SDS011;8688;54.444;18.444;2022-10-16T09:05:02;36.10;;;22.13;;
17145;SDS011;8688;54.444;18.444;2022-10-16T09:07:54;32.72;;;20.40;;
17145;SDS011;8688;54.444;18.444;2022-10-16T09:10:31;28.13;;;18.67;;
17145;SDS011;8688;54.444;18.444;2022-10-16T09:13:12;34.83;;;20.85;;
17145;SDS011;8688;54.444;18.444;2022-10-16T09:15:46;32.38;;;20.02;;
17145;SDS011;8688;54.444;18.444;2022-10-16T09:18:21;31.38;;;20.42;;
17145;SDS011;8688;54.444;18.444;2022-10-16T09:20:53;30.73;;;20.08;;
17145;SDS011;8688;54.444;18.444;2022-10-16T09:23:26;32.70;;;20.65;;
17145;SDS011;8688;54.444;18.444;2022-10-16T09:25:54;32.30;;;20.52;;
17145;SDS011;8688;54.444;18.444;2022-10-16T09:28:26;32.97;;;20.02;;
17145;SDS011;8688;54.444;18.444;2022-10-16T09:30:53;32.22;;;20.02;;
17145;SDS011;8688;54.444;18.444;2022-10-16T09:33:22;33.97;;;20.75;;
17145;SDS011;8688;54.444;18.444;2022-10-16T09:35:52;31.10;;;20.30;;
17145;SDS011;8688;54.444;18.444;2022-10-16T09:38:24;31.40;;;19.63;;
17145;SDS011;8688;54.444;18.444;2022-10-16T09:40:54;31.92;;;20.48;;
17145;SDS011;8688;54.444;18.444;2022-10-16T09:43:24;31.73;;;20.23;;
17145;SDS011;8688;54.444;18.444;2022-10-16T09:45:59;33.65;;;20.13;;
17145;SDS011;8688;54.444;18.444;2022-10-16T09:48:29;30.55;;;20.38;;
17145;SDS011;8688;54.444;18.444;2022-10-16T09:51:03;29.77;;;19.83;;
17145;SDS011;8688;54.444;18.444;2022-10-16T09:53:41;32.40;;;20.05;;
17145;SDS011;8688;54.444;18.444;2022-10-16T09:56:10;31.00;;;19.83;;
17145;SDS011;8688;54.444;18.444;2022-10-16T09:58:50;33.78;;;20.73;;
17145;SDS011;8688;54.444;18.444;2022-10-16T10:01:19;37.53;;;21.83;;
17145;SDS011;8688;54.444;18.444;2022-10-16T10:03:48;32.75;;;20.88;;
17145;SDS011;8688;54.444;18.444;2022-10-16T10:06:21;32.78;;;21.02;;
17145;SDS011;8688;54.444;18.444;2022-10-16T10:08:54;37.08;;;22.08;;
17145;SDS011;8688;54.444;18.444;2022-10-16T10:17:09;31.90;;;20.63;;
17145;SDS011;8688;54.444;18.444;2022-10-16T10:19:46;33.35;;;21.00;;
17145;SDS011;8688;54.444;18.444;2022-10-16T10:25:19;31.15;;;19.80;;
17145;SDS011;8688;54.444;18.444;2022-10-16T10:28:16;37.10;;;21.10;;
17145;SDS011;8688;54.444;18.444;2022-10-16T10:30:55;34.00;;;20.63;;
17145;SDS011;8688;54.444;18.444;2022-10-16T10:33:33;32.03;;;20.70;;
17145;SDS011;8688;54.444;18.444;2022-10-16T10:36:11;35.28;;;20.95;;
17145;SDS011;8688;54.444;18.444;2022-10-16T10:38:49;31.80;;;20.13;;
17145;SDS011;8688;54.444;18.444;2022-10-16T10:44:27;35.25;;;21.95;;
17145;SDS011;8688;54.444;18.444;2022-10-16T10:47:22;33.80;;;21.20;;
17145;SDS011;8688;54.444;18.444;2022-10-16T10:49:57;37.70;;;21.17;;
17145;SDS011;8688;54.444;18.444;2022-10-16T10:52:37;30.92;;;20.20;;
17145;SDS011;8688;54.444;18.444;2022-10-16T10:55:19;29.92;;;19.48;;
17145;SDS011;8688;54.444;18.444;2022-10-16T10:57:55;29.73;;;19.23;;
17145;SDS011;8688;54.444;18.444;2022-10-16T11:00:42;30.73;;;19.08;;
17145;SDS011;8688;54.444;18.444;2022-10-16T11:03:26;29.27;;;18.95;;
17145;SDS011;8688;54.444;18.444;2022-10-16T11:06:01;25.40;;;17.45;;
17145;SDS011;8688;54.444;18.444;2022-10-16T11:08:34;23.13;;;16.85;;
17145;SDS011;8688;54.444;18.444;2022-10-16T11:11:05;27.27;;;18.10;;
17145;SDS011;8688;54.444;18.444;2022-10-16T11:13:38;26.08;;;17.05;;
17145;SDS011;8688;54.444;18.444;2022-10-16T11:16:13;24.98;;;16.67;;
17145;SDS011;8688;54.444;18.444;2022-10-16T11:18:47;23.35;;;16.05;;
17145;SDS011;8688;54.444;18.444;2022-10-16T11:21:21;21.60;;;15.70;;
17145;SDS011;8688;54.444;18.444;2022-10-16T11:23:51;19.98;;;15.18;;
17145;SDS011;8688;54.444;18.444;2022-10-16T11:26:24;21.63;;;14.73;;
17145;SDS011;8688;54.444;18.444;2022-10-16T11:28:55;21.15;;;14.05;;
17145;SDS011;8688;54.444;18.444;2022-10-16T11:31:25;19.23;;;14.45;;
17145;SDS011;8688;54.444;18.444;2022-10-16T11:34:03;18.52;;;13.55;;
17145;SDS011;8688;54.444;18.444;2022-10-16T11:36:38;16.95;;;12.80;;
17145;SDS011;8688;54.444;18.444;2022-10-16T11:39:11;17.50;;;12.48;;
17145;SDS011;8688;54.444;18.444;2022-10-16T11:41:47;20.60;;;12.95;;
17145;SDS011;8688;54.444;18.444;2022-10-16T11:44:19;15.55;;;11.88;;
17145;SDS011;8688;54.444;18.444;2022-10-16T11:46:58;12.90;;;10.43;;
17145;SDS011;8688;54.444;18.444;2022-10-16T11:49:34;12.23;;;10.30;;
17145;SDS011;8688;54.444;18.444;2022-10-16T11:52:06;13.00;;;10.57;;
17145;SDS011;8688;54.444;18.444;2022-10-16T11:54:39;15.75;;;10.70;;
17145;SDS011;8688;54.444;18.444;2022-10-16T11:57:12;12.55;;;10.00;;
17145;SDS011;8688;54.444;18.444;2022-10-16T11:59:44;10.73;;;8.55;;
17145;SDS011;8688;54.444;18.444;2022-10-16T12:05:18;11.93;;;9.00;;
17145;SDS011;8688;54.444;18.444;2022-10-16T12:07:53;12.40;;;9.23;;
17145;SDS011;8688;54.444;18.444;2022-10-16T12:10:28;10.98;;;9.00;;
17145;SDS011;8688;54.444;18.444;2022-10-16T12:13:02;11.32;;;9.00;;
17145;SDS011;8688;54.444;18.444;2022-10-16T12:15:30;9.52;;;7.78;;
17145;SDS011;8688;54.444;18.444;2022-10-16T12:17:59;9.10;;;7.70;;
17145;SDS011;8688;54.444;18.444;2022-10-16T12:20:29;11.82;;;8.00;;
17145;SDS011;8688;54.444;18.444;2022-10-16T12:22:59;11.07;;;8.07;;
17145;SDS011;8688;54.444;18.444;2022-10-16T12:25:28;10.98;;;8.13;;
17145;SDS011;8688;54.444;18.444;2022-10-16T12:27:59;11.55;;;8.57;;
17145;SDS011;8688;54.444;18.444;2022-10-16T12:30:29;9.18;;;7.43;;
17145;SDS011;8688;54.444;18.444;2022-10-16T12:32:59;9.48;;;7.45;;
17145;SDS011;8688;54.444;18.444;2022-10-16T12:35:32;9.70;;;7.47;;
17145;SDS011;8688;54.444;18.444;2022-10-16T12:38:12;9.57;;;7.30;;
17145;SDS011;8688;54.444;18.444;2022-10-16T12:40:43;10.95;;;7.13;;
17145;SDS011;8688;54.444;18.444;2022-10-16T12:43:23;8.57;;;6.63;;
17145;SDS011;8688;54.444;18.444;2022-10-16T12:46:00;9.05;;;6.60;;
17145;SDS011;8688;54.444;18.444;2022-10-16T12:48:30;10.77;;;7.25;;
17145;SDS011;8688;54.444;18.444;2022-10-16T12:51:10;8.55;;;6.95;;
17145;SDS011;8688;54.444;18.444;2022-10-16T12:53:39;9.90;;;6.72;;
17145;SDS011;8688;54.444;18.444;2022-10-16T12:56:09;7.65;;;5.97;;
17145;SDS011;8688;54.444;18.444;2022-10-16T12:58:49;7.95;;;6.35;;
17145;SDS011;8688;54.444;18.444;2022-10-16T13:01:37;8.10;;;6.25;;
17145;SDS011;8688;54.444;18.444;2022-10-16T13:04:22;8.95;;;5.82;;
17145;SDS011;8688;54.444;18.444;2022-10-16T13:07:17;6.28;;;5.50;;
17145;SDS011;8688;54.444;18.444;2022-10-16T13:09:57;6.80;;;5.88;;
17145;SDS011;8688;54.444;18.444;2022-10-16T13:15:34;9.13;;;6.35;;
17145;SDS011;8688;54.444;18.444;2022-10-16T13:18:15;8.82;;;6.38;;
17145;SDS011;8688;54.444;18.444;2022-10-16T13:20:55;7.47;;;6.03;;
17145;SDS011;8688;54.444;18.444;2022-10-16T13:23:33;6.72;;;6.00;;
17145;SDS011;8688;54.444;18.444;2022-10-16T13:26:10;9.05;;;6.00;;
17145;SDS011;8688;54.444;18.444;2022-10-16T13:28:48;6.90;;;5.80;;
17145;SDS011;8688;54.444;18.444;2022-10-16T13:31:17;8.55;;;6.25;;
17145;SDS011;8688;54.444;18.444;2022-10-16T13:33:48;10.20;;;6.22;;
17145;SDS011;8688;54.444;18.444;2022-10-16T13:36:21;7.72;;;5.80;;
17145;SDS011;8688;54.444;18.444;2022-10-16T13:39:00;7.63;;;6.13;;
17145;SDS011;8688;54.444;18.444;2022-10-16T13:41:34;9.95;;;6.47;;
17145;SDS011;8688;54.444;18.444;2022-10-16T13:44:01;7.95;;;6.10;;
17145;SDS011;8688;54.444;18.444;2022-10-16T13:46:29;8.27;;;6.18;;
17145;SDS011;8688;54.444;18.444;2022-10-16T13:49:00;7.32;;;6.18;;
17145;SDS011;8688;54.444;18.444;2022-10-16T13:51:28;8.68;;;5.90;;
17145;SDS011;8688;54.444;18.444;2022-10-16T13:53:57;9.02;;;6.47;;
17145;SDS011;8688;54.444;18.444;2022-10-16T13:56:27;7.78;;;6.07;;
17145;SDS011;8688;54.444;18.444;2022-10-16T13:58:59;8.75;;;6.25;;
17145;SDS011;8688;54.444;18.444;2022-10-16T14:01:28;9.63;;;6.75;;
17145;SDS011;8688;54.444;18.444;2022-10-16T14:04:03;8.20;;;6.32;;
17145;SDS011;8688;54.444;18.444;2022-10-16T14:06:33;9.35;;;6.20;;
17145;SDS011;8688;54.444;18.444;2022-10-16T14:09:05;10.82;;;6.75;;
17145;SDS011;8688;54.444;18.444;2022-10-16T14:11:37;9.45;;;6.90;;
17145;SDS011;8688;54.444;18.444;2022-10-16T14:14:12;9.20;;;6.85;;
17145;SDS011;8688;54.444;18.444;2022-10-16T14:16:41;10.20;;;7.63;;
17145;SDS011;8688;54.444;18.444;2022-10-16T14:19:13;8.75;;;6.65;;
17145;SDS011;8688;54.444;18.444;2022-10-16T14:21:45;10.30;;;6.80;;
17145;SDS011;8688;54.444;18.444;2022-10-16T14:24:13;9.65;;;6.68;;
17145;SDS011;8688;54.444;18.444;2022-10-16T14:26:50;11.68;;;7.50;;
17145;SDS011;8688;54.444;18.444;2022-10-16T14:29:20;10.77;;;7.93;;
17145;SDS011;8688;54.444;18.444;2022-10-16T14:31:54;16.52;;;10.93;;
17145;SDS011;8688;54.444;18.444;2022-10-16T14:34:23;21.00;;;13.73;;
17145;SDS011;8688;54.444;18.444;2022-10-16T14:36:56;26.88;;;16.33;;
17145;SDS011;8688;54.444;18.444;2022-10-16T14:39:26;20.10;;;13.60;;
17145;SDS011;8688;54.444;18.444;2022-10-16T14:41:56;41.47;;;24.25;;
17145;SDS011;8688;54.444;18.444;2022-10-16T14:44:28;25.75;;;17.27;;
17145;SDS011;8688;54.444;18.444;2022-10-16T14:46:58;14.38;;;10.85;;
17145;SDS011;8688;54.444;18.444;2022-10-16T14:49:33;22.15;;;14.73;;
17145;SDS011;8688;54.444;18.444;2022-10-16T14:52:01;21.60;;;13.95;;
17145;SDS011;8688;54.444;18.444;2022-10-16T14:54:31;27.13;;;17.92;;
17145;SDS011;8688;54.444;18.444;2022-10-16T14:57:00;15.75;;;11.30;;
17145;SDS011;8688;54.444;18.444;2022-10-16T14:59:28;19.13;;;13.68;;
17145;SDS011;8688;54.444;18.444;2022-10-16T15:01:59;20.42;;;15.27;;
17145;SDS011;8688;54.444;18.444;2022-10-16T15:04:32;33.65;;;27.27;;
17145;SDS011;8688;54.444;18.444;2022-10-16T15:07:01;18.50;;;13.98;;
17145;SDS011;8688;54.444;18.444;2022-10-16T15:09:32;42.20;;;31.42;;